Time;durP1;ratioP1;P1;durP2;ratioP2;P2;SDS_P1;SDS_P2;PMS_P1;PMS_P2;Temp;Humidity;BMP_temperature;BMP_pressure;BME280_temperature;BME280_humidity;BME280_pressure;Samples;Min_cycle;Max_cycle;Signal;HPM_P1;HPM_P2
2022/04/26 03:38:18;;;;;;;;;34.00;27.00;;;;;8.48;95.57;99242.38;6285668;20;2870108;-57
2022/04/26 03:40:47;;;;;;;;;34.33;30.33;;;;;8.48;95.87;99245.03;6281282;20;2848230;-59
2022/04/26 03:43:15;;;;;;;;;23.50;18.00;;;;;8.47;96.51;99253.16;6312921;20;2832528;-57
2022/04/26 03:45:44;;;;;;;;;30.50;26.50;;;;;8.44;96.55;99250.66;6283763;20;2849220;-58
2022/04/26 03:48:13;;;;;;;;;34.00;29.50;;;;;8.55;95.27;99256.22;6284110;20;2852473;-58
2022/04/26 03:50:41;;;;;;;;;29.00;27.00;;;;;8.30;96.46;99259.47;6281381;20;2847158;-57
2022/04/26 03:53:12;;;;;;;;;40.00;30.00;;;;;8.22;96.73;99259.94;6283422;20;2865019;-58
2022/04/26 03:55:40;;;;;;;;;35.00;32.00;;;;;8.33;96.45;99260.16;6313759;20;2846100;-58
2022/04/26 03:58:10;;;;;;;;;24.00;23.00;;;;;8.54;95.69;99267.88;6285510;20;2836704;-58
2022/04/26 04:00:39;;;;;;;;;36.00;32.00;;;;;8.48;95.68;99274.47;6282907;20;2855535;-59
2022/04/26 04:03:07;;;;;;;;;29.00;28.00;;;;;8.70;95.00;99279.38;6282214;20;2569145;-58
2022/04/26 04:05:36;;;;;;;;;37.00;32.00;;;;;8.81;94.21;99280.56;6278032;20;2855609;-48
2022/04/26 04:08:06;;;;;;;;;37.00;28.00;;;;;8.83;94.20;99284.84;6280680;20;3604442;-51
2022/04/26 04:10:36;;;;;;;;;33.67;30.00;;;;;8.50;95.55;99287.75;6312377;20;2857605;-51
2022/04/26 04:13:05;;;;;;;;;40.33;31.67;;;;;8.55;96.14;99294.53;6319194;20;3608625;-54
2022/04/26 04:15:33;;;;;;;;;32.50;27.50;;;;;8.70;95.17;99289.22;6279162;20;2851294;-51
2022/04/26 04:18:03;;;;;;;;;33.50;32.00;;;;;8.55;95.10;99294.53;6280423;20;2857991;-52
2022/04/26 04:20:34;;;;;;;;;32.00;30.00;;;;;8.74;94.62;99290.75;6282816;20;2855557;-51
2022/04/26 04:23:03;;;;;;;;;32.00;28.00;;;;;8.87;94.07;99301.59;6314341;20;2847350;-50
2022/04/26 04:25:33;;;;;;;;;40.00;29.67;;;;;9.06;92.94;99301.31;6283574;20;3621056;-52
2022/04/26 04:28:02;;;;;;;;;29.67;27.67;;;;;8.86;93.79;99305.22;6312995;20;2844010;-48
2022/04/26 04:30:31;;;;;;;;;24.50;24.50;;;;;8.88;93.76;99303.31;6312296;20;2836820;-50
2022/04/26 04:33:00;;;;;;;;;35.67;33.67;;;;;8.88;94.25;99306.84;6282775;20;2860737;-50
2022/04/26 04:35:30;;;;;;;;;39.67;32.67;;;;;8.86;94.25;99306.09;6314540;20;3620070;-51
2022/04/26 04:37:59;;;;;;;;;39.33;27.33;;;;;9.16;93.43;99298.00;6314063;20;3621136;-63
2022/04/26 04:40:28;;;;;;;;;37.33;28.67;;;;;9.14;92.96;99313.31;6314464;20;3605645;-64
2022/04/26 04:42:58;;;;;;;;;33.33;26.33;;;;;9.07;93.08;99314.63;6277693;20;2861785;-64
2022/04/26 04:45:26;;;;;;;;;24.67;24.67;;;;;9.80;91.30;99313.66;6316847;20;3582650;-64
2022/04/26 04:47:55;;;;;;;;;24.00;23.00;;;;;12.85;79.62;99327.13;6278979;20;2839970;-64
2022/04/26 04:50:24;;;;;;;;;25.00;24.50;;;;;14.23;71.10;99326.94;6282932;20;2844033;-65
2022/04/26 04:52:52;;;;;;;;;27.50;22.50;;;;;14.52;68.06;99337.16;6282182;20;2847215;-65
2022/04/26 04:55:22;;;;;;;;;29.00;24.50;;;;;14.14;69.24;99335.81;6280764;20;2844213;-65
2022/04/26 04:57:51;;;;;;;;;27.67;26.67;;;;;14.05;69.20;99344.63;6279635;20;2858806;-66
2022/04/26 05:00:20;;;;;;;;;23.67;22.33;;;;;13.50;70.94;99338.28;6313450;20;3581530;-64
2022/04/26 05:02:49;;;;;;;;;26.00;23.50;;;;;12.88;73.97;99332.28;6278317;20;2844028;-65
2022/04/26 05:05:18;;;;;;;;;24.00;22.00;;;;;12.93;75.00;99338.16;6284973;20;2849273;-65
2022/04/26 05:07:47;;;;;;;;;27.00;23.50;;;;;13.65;72.35;99337.06;6283821;20;2846069;-65
2022/04/26 05:10:16;;;;;;;;;23.67;22.00;;;;;13.47;72.34;99339.38;6282801;20;3581486;-64
2022/04/26 05:12:45;;;;;;;;;24.00;22.00;;;;;15.31;66.38;99350.31;6273368;20;2846511;-66
2022/04/26 05:15:14;;;;;;;;;22.00;22.00;;;;;16.37;61.67;99354.47;6283687;20;2836810;-66
2022/04/26 05:17:43;;;;;;;;;22.50;21.50;;;;;16.82;60.19;99373.81;6282271;20;2837749;-66
2022/04/26 05:20:12;;;;;;;;;27.00;25.00;;;;;17.81;57.04;99373.56;6283678;20;2843006;-66
2022/04/26 05:25:32;;;;;;;;;24.33;21.67;;;;;15.47;63.96;99379.59;6318378;20;3582687;-63
2022/04/26 05:28:01;;;;;;;;;33.00;24.67;;;;;14.43;66.92;99375.75;6285515;20;3601392;-66
2022/04/26 05:30:30;;;;;;;;;25.00;23.50;;;;;14.54;67.31;99373.06;6281644;20;2844028;-66
2022/04/26 05:33:00;;;;;;;;;28.67;25.00;;;;;13.85;70.48;99375.97;6285436;20;2831617;-64
2022/04/26 05:35:27;;;;;;;;;23.00;21.00;;;;;15.19;66.94;99378.41;6310560;20;2498278;-64
2022/04/26 05:37:56;;;;;;;;;23.50;23.50;;;;;14.74;68.35;99384.03;6284549;20;2846109;-62
2022/04/26 05:40:25;;;;;;;;;23.50;21.50;;;;;18.13;57.55;99389.44;6281889;20;2844007;-63
2022/04/26 05:42:54;;;;;;;;;18.00;16.00;;;;;15.68;63.91;99380.44;6286889;20;2826317;-63
2022/04/26 05:45:22;;;;;;;;;20.00;17.50;;;;;14.37;68.33;99374.41;6279624;20;2492128;-63
2022/04/26 05:47:50;;;;;;;;;25.00;19.00;;;;;14.12;70.32;99380.97;6286018;20;2846106;-63
2022/04/26 05:50:19;;;;;;;;;24.00;21.00;;;;;14.79;68.59;99385.34;6272978;20;2835932;-62
2022/04/26 05:52:48;;;;;;;;;20.00;19.00;;;;;16.98;60.76;99388.66;6284625;20;2841941;-62
2022/04/26 05:55:17;;;;;;;;;19.50;19.50;;;;;16.46;62.02;99397.88;6285520;20;2839858;-63
2022/04/26 05:57:45;;;;;;;;;16.00;16.00;;;;;16.94;59.75;99395.41;6280776;20;2483726;-63
2022/04/26 06:00:15;;;;;;;;;14.67;14.67;;;;;15.03;65.29;99393.25;6281173;20;3537729;-62
2022/04/26 06:02:44;;;;;;;;;16.00;15.00;;;;;14.76;67.30;99384.75;6316798;20;3546082;-62
2022/04/26 06:05:20;;;;;;;;;19.00;16.33;;;;;14.62;68.62;99392.19;6282999;20;3569014;-62
2022/04/26 06:07:49;;;;;;;;;12.67;12.67;;;;;15.69;63.20;99402.97;6316716;20;3516958;-62
2022/04/26 06:10:18;;;;;;;;;11.67;11.67;;;;;17.09;58.58;99404.81;6313547;20;3517922;-62
2022/04/26 06:12:48;;;;;;;;;16.67;16.67;;;;;14.66;65.67;99404.44;6311762;20;3560688;-62
2022/04/26 06:15:17;;;;;;;;;15.67;15.67;;;;;14.18;68.15;99404.75;6288294;20;2823554;-62
2022/04/26 06:17:45;;;;;;;;;16.00;16.00;;;;;15.01;66.56;99407.88;6314064;20;2491885;-62
2022/04/26 06:20:14;;;;;;;;;18.67;17.67;;;;;14.63;67.46;99407.41;6282061;20;2834735;-62
2022/04/26 06:22:43;;;;;;;;;14.67;14.67;;;;;14.42;68.78;99401.88;6316382;20;3525340;-62
2022/04/26 06:25:11;;;;;;;;;15.00;15.00;;;;;14.49;68.59;99402.25;6315817;20;2613797;-62
2022/04/26 06:27:39;;;;;;;;;18.00;18.00;;;;;15.81;64.81;99410.03;6289328;20;2496130;-62
2022/04/26 06:30:07;;;;;;;;;14.50;14.50;;;;;15.70;63.96;99412.81;6289468;20;2804415;-62
2022/04/26 06:32:35;;;;;;;;;17.00;14.00;;;;;16.66;60.56;99406.88;6287344;20;2489846;-61
2022/04/26 06:35:05;;;;;;;;;18.33;16.33;;;;;17.03;59.23;99410.81;6289984;20;3555419;-61
2022/04/26 06:37:32;;;;;;;;;16.50;15.00;;;;;19.70;51.92;99418.09;6294888;20;2806501;-62
2022/04/26 06:40:01;;;;;;;;;12.67;12.00;;;;;25.30;39.55;99437.44;6289290;20;3529539;-62
2022/04/26 06:42:30;;;;;;;;;12.33;12.33;;;;;26.31;36.11;99430.88;6318405;20;3517969;-62
2022/04/26 06:44:59;;;;;;;;;8.80;8.00;;;;;26.26;34.18;99442.50;6344528;20;2734669;-62
2022/04/26 06:47:28;;;;;;;;;12.33;10.00;;;;;26.13;33.86;99436.91;6294592;20;2784648;-62
2022/04/26 06:49:56;;;;;;;;;9.67;9.67;;;;;26.85;33.02;99438.38;6317230;20;2774319;-62
2022/04/26 06:52:28;;;;;;;;;12.00;9.00;;;;;26.84;33.00;99444.94;6343933;20;2763824;-62
2022/04/26 06:54:57;;;;;;;;;12.00;10.00;;;;;25.65;35.45;99431.22;6291065;20;2789827;-62
2022/04/26 06:57:25;;;;;;;;;10.33;10.33;;;;;27.16;33.22;99437.84;6318734;20;2777361;-63
2022/04/26 06:59:53;;;;;;;;;8.33;8.33;;;;;26.79;31.74;99433.69;6325062;20;2745061;-63
2022/04/26 07:02:22;;;;;;;;;11.67;11.00;;;;;27.88;31.68;99440.94;6323569;20;2792008;-62
2022/04/26 07:04:51;;;;;;;;;10.33;10.33;;;;;26.88;32.97;99448.97;6320520;20;3512753;-61
2022/04/26 07:07:20;;;;;;;;;10.33;10.33;;;;;27.55;31.69;99442.59;6286910;20;3512777;-62
2022/04/26 07:09:49;;;;;;;;;10.00;10.00;;;;;27.60;32.33;99455.75;6317380;20;2789852;-62
2022/04/26 07:12:17;;;;;;;;;12.33;11.00;;;;;27.25;31.64;99457.81;6318365;20;3517935;-61
2022/04/26 07:14:46;;;;;;;;;13.00;11.67;;;;;26.99;32.42;99453.91;6293652;20;2788803;-62
2022/04/26 07:17:17;;;;;;;;;12.00;12.00;;;;;26.85;32.70;99457.66;6319377;20;3520015;-62
2022/04/26 07:19:46;;;;;;;;;12.00;12.00;;;;;27.25;33.08;99457.81;6331082;20;1809636;-62
2022/04/26 07:22:29;;;;;;;;;11.67;10.67;;;;;25.79;34.48;99463.28;6325226;20;2786778;-64
2022/04/26 07:24:58;;;;;;;;;13.00;9.00;;;;;25.64;33.69;99460.59;6314866;20;2756698;-58
2022/04/26 07:27:27;;;;;;;;;9.00;9.00;;;;;21.70;40.78;99441.13;6319083;20;2762844;-60
2022/04/26 07:29:56;;;;;;;;;10.20;8.20;;;;;19.57;45.35;99431.25;6342656;20;2764822;-63
2022/04/26 07:35:14;;;;;;;;;11.60;11.60;;;;;19.21;46.93;99444.03;6313162;20;2794450;-62
2022/04/26 07:37:43;;;;;;;;;13.33;11.33;;;;;18.72;51.54;99435.34;6290332;20;3513780;-61
2022/04/26 07:40:12;;;;;;;;;10.33;10.33;;;;;18.63;50.30;99437.97;6322594;20;2789893;-62
2022/04/26 07:42:40;;;;;;;;;9.67;9.00;;;;;18.64;50.94;99442.41;6320700;20;2760709;-63
2022/04/26 07:45:09;;;;;;;;;7.67;7.67;;;;;18.25;49.78;99435.47;6318796;20;2754483;-61
2022/04/26 07:47:39;;;;;;;;;8.40;7.00;;;;;18.13;50.12;99437.50;6347461;20;2741946;-59
2022/04/26 07:50:09;;;;;;;;;5.00;5.00;;;;;18.50;47.44;99436.63;6310961;20;2748157;-62
2022/04/26 07:52:43;;;;;;;;;4.00;4.00;;;;;18.32;44.98;99442.00;6318368;20;2749253;-62
2022/04/26 07:55:11;;;;;;;;;3.00;3.00;;;;;17.76;45.32;99447.28;6323873;20;2726414;-62
2022/04/26 07:57:39;;;;;;;;;5.00;5.00;;;;;18.81;45.98;99453.50;6293904;20;2747240;-61
2022/04/26 08:00:08;;;;;;;;;9.00;9.00;;;;;18.82;49.59;99457.91;6292365;20;2750409;-61
2022/04/26 08:02:36;;;;;;;;;8.00;7.00;;;;;19.25;46.00;99456.34;6293959;20;2740916;-61
2022/04/26 08:05:05;;;;;;;;;5.00;5.00;;;;;19.29;46.36;99458.56;6296052;20;2731574;-62
2022/04/26 08:07:39;;;;;;;;;5.67;5.67;;;;;19.34;44.94;99460.84;6323416;20;2737808;-64
2022/04/26 08:10:12;;;;;;;;;5.00;5.00;;;;;18.61;45.73;99459.00;6320844;20;2745036;-64
2022/04/26 08:12:42;;;;;;;;;3.67;3.67;;;;;18.74;44.93;99464.09;6324016;20;2748266;-64
2022/04/26 08:15:13;;;;;;;;;3.67;3.67;;;;;19.11;44.21;99471.31;6323464;20;2748306;-64
2022/04/26 08:17:42;;;;;;;;;3.67;3.67;;;;;19.53;43.32;99465.25;6318335;20;2752447;-64
2022/04/26 08:20:11;;;;;;;;;3.00;3.00;;;;;19.00;43.22;99466.97;6339873;20;2732648;-64
2022/04/26 08:22:40;;;;;;;;;3.00;3.00;;;;;19.16;43.95;99457.25;6323355;20;2747187;-63
2022/04/26 08:27:57;;;;;;;;;2.00;2.00;;;;;19.31;40.92;99469.31;6320804;20;2756500;-64
2022/04/26 08:30:25;;;;;;;;;2.33;2.33;;;;;19.71;40.98;99473.44;6320439;20;2744020;-63
2022/04/26 08:32:54;;;;;;;;;1.00;1.00;;;;;19.63;39.26;99470.63;6320727;20;2728770;-63
2022/04/26 08:35:27;;;;;;;;;2.00;2.00;;;;;19.89;39.35;99476.97;6323693;20;2728540;-64
2022/04/26 08:38:15;;;;;;;;;2.33;1.00;;;;;19.94;40.10;99474.63;6322333;20;2726294;-65
2022/04/26 08:40:45;;;;;;;;;2.00;2.00;;;;;20.22;39.62;99481.78;6343885;20;2752337;-64
2022/04/26 08:43:15;;;;;;;;;3.00;3.00;;;;;19.85;40.94;99475.59;6313698;20;2756604;-65
2022/04/26 08:45:47;;;;;;;;;2.00;2.00;;;;;20.13;40.25;99472.72;6313182;20;2752508;-52
2022/04/26 08:51:04;;;;;;;;;2.80;2.00;;;;;20.85;38.20;99477.84;6341675;20;2744103;-50
2022/04/26 08:53:36;;;;;;;;;2.00;2.00;;;;;20.25;37.52;99476.88;6322187;20;2733597;-48
2022/04/26 08:56:06;;;;;;;;;1.00;1.00;;;;;20.18;37.40;99475.81;6321728;20;2726346;-49
2022/04/26 08:58:36;;;;;;;;;1.20;1.20;;;;;20.24;37.63;99471.56;6343964;20;2724210;-57
2022/04/26 09:01:18;;;;;;;;;1.00;1.00;;;;;19.88;38.77;99472.56;6323377;20;2735761;-58
2022/04/26 09:03:56;;;;;;;;;1.00;1.00;;;;;21.17;39.18;99472.47;6321385;20;2728490;-58
2022/04/26 09:06:45;;;;;;;;;1.00;1.00;;;;;20.80;36.60;99484.66;6324232;20;2729820;-54
2022/04/26 09:09:24;;;;;;;;;2.00;2.00;;;;;20.75;38.50;99484.31;6321751;20;2752337;-54
2022/04/26 09:12:01;;;;;;;;;3.00;2.00;;;;;20.75;37.79;99478.84;6321342;20;2732596;-52
2022/04/26 09:14:41;;;;;;;;;3.40;2.20;;;;;20.78;37.00;99483.97;6342226;20;2747196;-57
2022/04/26 09:17:13;;;;;;;;;2.00;2.00;;;;;19.94;39.02;99469.19;6321068;20;2743990;-57
2022/04/26 09:19:55;;;;;;;;;4.00;2.67;;;;;20.26;38.96;99484.03;6317948;20;2739857;-55
2022/04/26 09:22:28;;;;;;;;;3.00;3.00;;;;;20.13;38.18;99472.72;6344561;20;2741920;-56
2022/04/26 09:25:05;;;;;;;;;3.00;1.80;;;;;20.44;39.69;99474.94;6343057;20;2735878;-51
2022/04/26 09:27:41;;;;;;;;;2.00;2.00;;;;;20.53;38.19;99479.38;6322972;20;2744006;-53
2022/04/26 09:30:16;;;;;;;;;1.50;1.00;;;;;20.36;38.83;99482.03;6325995;20;2619073;-52
2022/04/26 09:32:50;;;;;;;;;4.20;3.00;;;;;20.23;39.37;99486.25;6342416;20;2752357;-54
2022/04/26 09:35:24;;;;;;;;;3.00;3.00;;;;;21.09;38.46;99486.13;6291006;20;2738799;-52
2022/04/26 09:37:54;;;;;;;;;3.00;3.00;;;;;20.16;39.25;99477.84;6343796;20;2739951;-54
2022/04/26 09:40:32;;;;;;;;;3.00;3.00;;;;;20.52;39.54;99473.09;6317943;20;2752416;-50
2022/04/26 09:43:01;;;;;;;;;3.00;3.00;;;;;20.76;37.94;99474.25;6318555;20;2736781;-54
2022/04/26 09:45:29;;;;;;;;;2.00;2.00;;;;;21.11;39.93;99467.66;6316545;20;2748165;-53
2022/04/26 09:47:59;;;;;;;;;2.00;2.00;;;;;20.11;40.21;99463.81;6344028;20;2756525;-50
2022/04/26 09:50:29;;;;;;;;;4.00;2.00;;;;;20.87;40.24;99475.81;6283249;20;2753496;-48
2022/04/26 09:52:59;;;;;;;;;3.40;3.40;;;;;21.02;39.01;99477.72;6339782;20;2746076;-55
2022/04/26 09:55:28;;;;;;;;;3.33;3.00;;;;;20.66;38.54;99466.19;6319529;20;2755510;-54
2022/04/26 09:57:58;;;;;;;;;2.00;2.00;;;;;20.68;39.41;99468.75;6317674;20;2743997;-57
2022/04/26 10:00:27;;;;;;;;;2.00;2.00;;;;;20.96;38.12;99464.75;6316511;20;2744025;-51
2022/04/26 10:03:05;;;;;;;;;2.00;2.00;;;;;21.39;39.40;99456.50;6340002;20;2744177;-56
2022/04/26 10:05:39;;;;;;;;;3.00;3.00;;;;;20.77;38.81;99463.16;6340772;20;2744001;-53
2022/04/26 10:08:10;;;;;;;;;1.80;1.80;;;;;20.94;37.14;99460.47;6343385;20;2739858;-56
2022/04/26 10:10:39;;;;;;;;;2.67;2.67;;;;;21.67;35.70;99460.59;6316242;20;2753368;-57
2022/04/26 10:16:23;;;;;;;;;2.00;2.00;;;;;21.77;36.67;99451.34;6308581;20;2750236;-57
2022/04/26 10:19:07;;;;;;;;;2.60;2.40;;;;;21.94;37.54;99457.66;6339381;20;2748194;-54
2022/04/26 10:21:38;;;;;;;;;2.33;2.33;;;;;21.17;37.48;99464.28;6321429;20;2727337;-57
2022/04/26 10:24:11;;;;;;;;;4.20;2.60;;;;;20.73;36.83;99453.59;6341804;20;2741918;-63
2022/04/26 10:26:42;;;;;;;;;4.20;3.60;;;;;21.38;36.10;99449.31;6341260;20;2750275;-65
2022/04/26 10:29:10;;;;;;;;;3.00;3.00;;;;;21.48;36.75;99453.59;6319349;20;2739855;-65
2022/04/26 10:32:00;;;;;;;;;3.00;3.00;;;;;22.09;37.08;99451.31;6341935;20;2750248;-62
2022/04/26 10:34:34;;;;;;;;;3.14;3.00;;;;;21.98;36.15;99448.94;6359558;20;3453469;-63
2022/04/26 10:37:07;;;;;;;;;2.80;2.80;;;;;21.35;37.60;99449.63;6341732;20;2756561;-63
2022/04/26 10:39:48;;;;;;;;;2.00;2.00;;;;;22.01;35.81;99458.66;6287601;20;2746206;-60
2022/04/26 10:42:19;;;;;;;;;4.40;3.40;;;;;21.45;35.03;99450.34;6342529;20;2750255;-60
2022/04/26 10:44:49;;;;;;;;;4.00;4.00;;;;;22.11;36.78;99454.69;6342581;20;2756562;-59
2022/04/26 10:47:19;;;;;;;;;3.00;3.00;;;;;21.89;36.13;99449.97;6311446;20;2744034;-60
2022/04/26 10:49:50;;;;;;;;;3.00;3.00;;;;;22.64;35.08;99449.59;6338862;20;2737741;-49
2022/04/26 10:52:23;;;;;;;;;3.00;3.00;;;;;22.46;35.97;99441.66;6340982;20;2747120;-56
2022/04/26 10:54:55;;;;;;;;;5.00;3.00;;;;;22.54;36.56;99452.56;6318329;20;2746208;-57
2022/04/26 10:57:37;;;;;;;;;4.00;4.00;;;;;21.95;36.39;99452.00;6316719;20;2752359;-58
2022/04/26 11:00:23;;;;;;;;;6.00;4.20;;;;;21.86;36.51;99444.88;6340606;20;2744076;-58
2022/04/26 11:03:02;;;;;;;;;5.80;4.40;;;;;21.82;36.89;99448.97;6309356;20;2743035;-55
2022/04/26 11:05:32;;;;;;;;;4.20;4.20;;;;;22.04;35.70;99452.88;6309204;20;2746186;-51
2022/04/26 11:08:05;;;;;;;;;4.00;4.00;;;;;21.62;36.62;99443.88;6310313;20;2751334;-63
2022/04/26 11:13:36;;;;;;;;;8.40;5.80;;;;;21.85;38.18;99437.66;6346284;20;2732579;-56
2022/04/26 11:16:09;;;;;;;;;4.00;4.00;;;;;21.40;37.32;99439.06;6324419;20;2756528;-53
2022/04/26 11:18:42;;;;;;;;;5.40;4.40;;;;;21.58;37.50;99434.28;6339649;20;2749213;-50
2022/04/26 11:21:13;;;;;;;;;7.80;5.40;;;;;21.35;37.78;99435.97;6345055;20;2739983;-53
2022/04/26 11:29:26;;;;;;;;;4.80;4.80;;;;;21.81;36.41;99445.38;6315547;20;2741977;-48
2022/04/26 11:31:56;;;;;;;;;7.00;5.00;;;;;21.39;37.09;99438.22;6345406;20;2754542;-51
2022/04/26 11:34:48;;;;;;;;;4.40;4.40;;;;;21.59;36.01;99437.88;6313242;20;2741954;-56
2022/04/26 11:37:18;;;;;;;;;5.60;4.60;;;;;22.00;35.39;99425.00;6312130;20;2742953;-52
2022/04/26 11:39:47;;;;;;;;;5.00;4.60;;;;;22.01;35.27;99426.72;6311848;20;2750355;-54
2022/04/26 11:42:17;;;;;;;;;5.00;5.00;;;;;21.61;36.47;99442.13;6315847;20;2740865;-50
2022/04/26 11:45:05;;;;;;;;;5.60;5.60;;;;;21.80;35.97;99434.59;6344769;20;2748143;-49
2022/04/26 11:47:51;;;;;;;;;5.20;5.20;;;;;22.01;36.36;99437.66;6344500;20;2743061;-50
2022/04/26 11:50:30;;;;;;;;;6.67;4.67;;;;;21.65;36.01;99431.72;6365955;20;3457522;-47
2022/04/26 11:53:07;;;;;;;;;4.00;4.00;;;;;22.18;36.01;99423.94;6343419;20;2747128;-52
2022/04/26 11:55:45;;;;;;;;;4.00;4.00;;;;;22.50;36.14;99426.56;6365646;20;3443065;-58
2022/04/26 11:58:27;;;;;;;;;6.00;5.00;;;;;22.54;35.94;99425.19;6345221;20;2740448;-57
2022/04/26 12:01:12;;;;;;;;;5.00;5.00;;;;;22.39;34.52;99424.25;6288685;20;2735680;-52
2022/04/26 12:03:53;;;;;;;;;4.40;4.40;;;;;22.88;36.51;99413.06;6345919;20;2750309;-52
2022/04/26 12:06:35;;;;;;;;;5.00;5.00;;;;;22.44;36.54;99413.63;6311701;20;2740925;-61
2022/04/26 12:09:15;;;;;;;;;5.20;5.20;;;;;21.96;36.63;99420.06;6314443;20;2743067;-62
2022/04/26 12:11:45;;;;;;;;;4.00;4.00;;;;;21.98;36.88;99418.00;6345457;20;2750313;-49
2022/04/26 12:14:21;;;;;;;;;8.40;8.40;;;;;21.61;36.10;99417.53;6314469;20;2736878;-51
2022/04/26 12:16:56;;;;;;;;;6.00;6.00;;;;;21.38;36.16;99408.34;6310225;20;2748344;-63
2022/04/26 12:19:37;;;;;;;;;6.20;5.00;;;;;21.64;37.85;99413.63;6313694;20;2736705;-57
2022/04/26 12:22:07;;;;;;;;;5.00;5.00;;;;;22.35;35.79;99406.47;6344618;20;2737773;-56
2022/04/26 12:24:48;;;;;;;;;7.00;7.00;;;;;22.24;34.99;99406.84;6343415;20;2732552;-59
2022/04/26 12:27:25;;;;;;;;;10.40;7.80;;;;;22.16;35.74;99404.13;6344368;20;2755485;-59
2022/04/26 12:29:55;;;;;;;;;6.80;6.80;;;;;22.24;36.12;99404.13;6310970;20;2746105;-58
2022/04/26 12:32:26;;;;;;;;;7.80;7.80;;;;;21.39;37.61;99399.13;6312677;20;2744053;-52
2022/04/26 12:34:58;;;;;;;;;7.67;7.67;;;;;20.57;38.80;99398.97;6321414;20;2733639;-53
2022/04/26 12:37:34;;;;;;;;;8.20;8.20;;;;;20.53;38.16;99397.56;6343567;20;2746317;-54
2022/04/26 12:40:11;;;;;;;;;9.33;7.00;;;;;21.54;36.68;99385.63;6285657;20;2747181;-59
2022/04/26 12:42:42;;;;;;;;;5.60;5.60;;;;;22.06;37.81;99390.63;6343190;20;2743062;-59
2022/04/26 12:45:23;;;;;;;;;7.60;7.60;;;;;22.15;36.92;99395.06;6344227;20;2748239;-59
2022/04/26 12:51:27;;;;;;;;;7.67;7.67;;;;;21.85;37.92;99394.81;6318202;20;2739853;-56
2022/04/26 12:54:12;;;;;;;;;9.80;8.60;;;;;21.76;38.87;99390.38;6341545;20;2777366;-54
2022/04/26 12:57:01;;;;;;;;;9.20;9.20;;;;;22.22;38.29;99379.69;6314377;20;2754413;-57
2022/04/26 12:59:36;;;;;;;;;9.67;8.33;;;;;21.97;38.22;99381.63;6286441;20;2757737;-57
2022/04/26 13:02:06;;;;;;;;;10.33;7.33;;;;;21.93;36.83;99380.25;6317529;20;2763984;-55
2022/04/26 13:04:36;;;;;;;;;11.00;8.00;;;;;22.62;36.85;99385.13;6341694;20;2765871;-47
2022/04/26 13:07:07;;;;;;;;;9.00;6.60;;;;;23.11;36.28;99379.38;6316043;20;2748255;-53
2022/04/26 13:09:37;;;;;;;;;7.00;7.00;;;;;22.97;36.05;99381.88;6313480;20;2734728;-55
2022/04/26 13:12:07;;;;;;;;;7.40;6.40;;;;;23.10;36.30;99380.41;6343587;20;2736178;-50
2022/04/26 13:14:37;;;;;;;;;6.80;6.00;;;;;23.38;36.31;99381.56;6313097;20;2738257;-55
2022/04/26 13:17:20;;;;;;;;;4.80;4.00;;;;;22.75;36.32;99369.84;6343281;20;2740911;-54
2022/04/26 13:19:50;;;;;;;;;6.00;6.00;;;;;22.06;36.57;99372.34;6312941;20;2737873;-51
2022/04/26 13:22:21;;;;;;;;;6.80;6.40;;;;;21.37;38.70;99368.38;6311380;20;2736825;-53
2022/04/26 13:24:51;;;;;;;;;7.00;7.00;;;;;21.08;38.82;99377.06;6342018;20;2734611;-54
2022/04/26 13:27:21;;;;;;;;;8.00;7.00;;;;;20.69;39.16;99370.34;6343696;20;2732522;-48
2022/04/26 13:29:50;;;;;;;;;7.60;7.20;;;;;21.21;38.82;99370.06;6341515;20;2741113;-51
2022/04/26 13:32:20;;;;;;;;;7.40;7.40;;;;;21.16;39.02;99371.63;6313057;20;2734645;-53
2022/04/26 13:34:51;;;;;;;;;6.00;6.00;;;;;21.52;38.09;99371.31;6340456;20;2733624;-52
2022/04/26 13:37:22;;;;;;;;;6.20;6.20;;;;;21.05;38.98;99368.19;6342990;20;2728359;-47
2022/04/26 13:39:51;;;;;;;;;7.00;7.00;;;;;21.73;37.15;99370.75;6343978;20;2721556;-51
2022/04/26 13:42:21;;;;;;;;;5.33;5.00;;;;;22.01;37.61;99369.31;6318881;20;2748199;-49
2022/04/26 13:44:52;;;;;;;;;6.00;6.00;;;;;22.23;37.96;99358.66;6319306;20;2746079;-50
2022/04/26 13:47:22;;;;;;;;;6.60;6.60;;;;;21.58;36.47;99365.97;6339346;20;2748266;-60
2022/04/26 13:49:53;;;;;;;;;5.80;5.80;;;;;22.08;36.46;99355.78;6309317;20;2740958;-46
2022/04/26 13:52:23;;;;;;;;;6.00;6.00;;;;;22.71;37.11;99362.16;6287041;20;2737764;-60
2022/04/26 13:54:52;;;;;;;;;7.67;7.00;;;;;22.61;36.60;99359.66;6318981;20;2746190;-59
2022/04/26 13:57:21;;;;;;;;;7.00;5.00;;;;;22.67;36.66;99355.34;6315053;20;2739833;-58
2022/04/26 13:59:51;;;;;;;;;7.20;7.20;;;;;22.14;38.00;99355.06;6339083;20;2736731;-59
2022/04/26 14:02:21;;;;;;;;;7.20;6.40;;;;;22.49;38.19;99363.84;6345108;20;2735681;-59
2022/04/26 14:04:49;;;;;;;;;8.67;7.67;;;;;21.84;38.43;99370.38;6319211;20;2735662;-58
2022/04/26 14:07:19;;;;;;;;;5.00;5.00;;;;;22.16;38.12;99355.75;6344137;20;2738858;-61
2022/04/26 14:09:48;;;;;;;;;6.80;6.80;;;;;22.55;38.67;99352.16;6341640;20;2739815;-59
2022/04/26 14:12:18;;;;;;;;;7.80;6.60;;;;;22.01;39.27;99344.72;6343476;20;2741995;-58
2022/04/26 14:23:14;;;;;;;;;7.20;6.00;;;;;20.52;41.00;99352.22;6343452;20;2731570;-57
2022/04/26 14:25:42;;;;;;;;;1.33;1.33;;;;;20.53;42.04;99353.91;6318929;20;2736714;-56
2022/04/26 14:28:11;;;;;;;;;4.33;4.33;;;;;20.59;42.42;99354.16;6315975;20;2754557;-54
2022/04/26 14:30:40;;;;;;;;;9.33;8.00;;;;;20.32;43.38;99357.94;6321097;20;2759620;-53
2022/04/26 14:33:11;;;;;;;;;5.60;5.60;;;;;20.77;42.08;99356.75;6342199;20;2743042;-58
2022/04/26 14:35:41;;;;;;;;;8.20;7.20;;;;;21.27;41.41;99361.22;6339787;20;2741902;-58
2022/04/26 14:38:10;;;;;;;;;9.40;8.00;;;;;20.72;42.53;99358.25;6339491;20;2768194;-50
2022/04/26 14:40:40;;;;;;;;;6.40;6.40;;;;;20.52;42.71;99358.53;6307940;20;2740892;-56
2022/04/26 14:43:10;;;;;;;;;6.80;6.80;;;;;20.29;42.40;99363.72;6310287;20;2737875;-56
2022/04/26 14:45:45;;;;;;;;;7.00;7.00;;;;;20.07;43.00;99353.44;6338205;20;2616903;-46
2022/04/26 14:48:16;;;;;;;;;6.20;6.20;;;;;20.23;42.35;99369.00;6346784;20;2741354;-48
2022/04/26 14:50:55;;;;;;;;;9.33;7.00;;;;;20.35;43.16;99362.22;6318216;20;2745020;-51
2022/04/26 14:53:25;;;;;;;;;7.60;7.60;;;;;20.84;42.22;99365.09;6346062;20;2738940;-47
2022/04/26 14:56:10;;;;;;;;;8.00;8.00;;;;;20.84;42.20;99356.91;6327025;20;2750238;-51
2022/04/26 14:59:03;;;;;;;;;7.80;7.80;;;;;20.81;42.05;99360.00;6347445;20;2742973;-49
2022/04/26 15:01:45;;;;;;;;;10.20;8.00;;;;;20.86;42.65;99359.50;6344237;20;2752353;-46
2022/04/26 15:04:21;;;;;;;;;7.67;7.67;;;;;19.99;44.33;99356.13;6291899;20;2734810;-42
2022/04/26 15:06:50;;;;;;;;;6.20;6.20;;;;;20.44;43.75;99354.94;6346542;20;2746215;-45
2022/04/26 15:17:48;;;;;;;;;9.00;8.40;;;;;19.54;44.09;99352.59;6345518;20;2750347;-55
2022/04/26 15:20:19;;;;;;;;;9.00;7.60;;;;;19.61;44.58;99337.31;6312983;20;2748326;-49
2022/04/26 15:22:47;;;;;;;;;7.00;7.00;;;;;19.58;44.36;99348.53;6288545;20;2739839;-45
2022/04/26 15:25:17;;;;;;;;;9.00;9.00;;;;;19.39;45.02;99349.59;6344363;20;2756534;-53
2022/04/26 15:27:45;;;;;;;;;9.00;9.00;;;;;19.66;44.27;99350.44;6286411;20;2746246;-59
2022/04/26 15:30:13;;;;;;;;;8.00;7.50;;;;;19.24;45.23;99345.75;6298076;20;2741933;-60
2022/04/26 15:32:41;;;;;;;;;7.00;7.00;;;;;19.71;45.05;99345.41;6296101;20;2731515;-46
2022/04/26 15:35:11;;;;;;;;;10.00;7.00;;;;;19.43;45.00;99347.41;6296286;20;2760750;-46
2022/04/26 15:37:39;;;;;;;;;9.33;9.33;;;;;19.84;44.82;99351.28;6315443;20;2752333;-60
2022/04/26 15:40:09;;;;;;;;;8.40;7.80;;;;;19.78;44.54;99340.19;6344503;20;2750658;-59
2022/04/26 15:42:39;;;;;;;;;8.60;8.00;;;;;19.64;44.43;99334.28;6346134;20;2753487;-51
2022/04/26 15:45:08;;;;;;;;;8.00;8.00;;;;;19.72;43.90;99344.38;6321967;20;2750330;-57
2022/04/26 15:47:37;;;;;;;;;7.80;7.80;;;;;19.77;43.90;99342.03;6339953;20;2731527;-49
2022/04/26 15:50:06;;;;;;;;;7.00;7.00;;;;;19.84;43.56;99347.69;6325841;20;2743184;-59
2022/04/26 15:52:39;;;;;;;;;9.00;7.86;;;;;19.66;44.48;99345.00;6336473;20;3468973;-47